createdAt,value
2022-08-05T00:02:30.630Z,22.61
2022-08-05T00:06:35.969Z,22.52
2022-08-05T00:10:38.430Z,22.47
2022-08-05T00:14:41.026Z,22.42
2022-08-05T00:18:46.157Z,22.41
2022-08-05T00:22:57.515Z,22.38
2022-08-05T00:27:04.793Z,22.44
2022-08-05T00:31:14.339Z,22.46
2022-08-05T00:35:16.747Z,22.44
2022-08-05T00:39:24.484Z,22.37
2022-08-05T00:43:29.223Z,22.38
2022-08-05T00:47:56.495Z,22.35
2022-08-05T00:52:07.438Z,22.35
2022-08-05T00:56:09.792Z,22.34
2022-08-05T01:00:13.315Z,22.28
2022-08-05T01:04:20.159Z,22.11
2022-08-05T01:08:43.333Z,22.11
2022-08-05T01:13:00.392Z,22.11
2022-08-05T01:17:39.928Z,22.11
2022-08-05T01:22:24.047Z,22.14
2022-08-05T01:26:53.034Z,22.14
2022-08-05T01:31:11.556Z,22.08
2022-08-05T01:35:51.680Z,22.06
2022-08-05T01:39:47.303Z,22.04
2022-08-05T01:44:12.559Z,21.99
2022-08-05T01:48:19.224Z,21.85
2022-08-05T01:52:24.098Z,21.73
2022-08-05T01:58:09.314Z,21.59
2022-08-05T02:00:59.693Z,21.35
2022-08-05T02:05:11.854Z,21.13
2022-08-05T02:09:16.478Z,21.00
2022-08-05T02:13:53.800Z,21.11
2022-08-05T02:18:31.228Z,21.00
2022-08-05T02:22:32.712Z,21.13
2022-08-05T02:26:54.675Z,21.22
2022-08-05T02:31:02.424Z,21.04
2022-08-05T02:35:13.570Z,20.72
2022-08-05T02:39:21.409Z,20.62
2022-08-05T02:43:25.519Z,20.68
2022-08-05T02:47:58.761Z,20.88
2022-08-05T02:52:04.089Z,20.97
2022-08-05T02:56:15.952Z,20.86
2022-08-05T03:00:21.683Z,20.58
2022-08-05T03:04:24.704Z,20.55
2022-08-05T03:08:29.991Z,20.62
2022-08-05T03:12:32.957Z,20.45
2022-08-05T03:16:37.264Z,20.50
2022-08-05T03:20:44.585Z,20.41
2022-08-05T03:24:52.733Z,20.48
2022-08-05T03:28:56.537Z,20.54
2022-08-05T03:33:03.152Z,20.57
2022-08-05T03:37:07.690Z,20.33
2022-08-05T03:41:10.976Z,20.19
2022-08-05T03:45:22.423Z,20.13
2022-08-05T03:49:31.103Z,20.07
2022-08-05T03:55:54.208Z,20.13
2022-08-05T03:58:18.322Z,20.13
2022-08-05T04:02:38.549Z,20.15
2022-08-05T04:06:51.395Z,20.14
2022-08-05T04:11:04.025Z,19.93
2022-08-05T04:15:08.394Z,19.78
2022-08-05T04:19:18.066Z,19.95
2022-08-05T04:24:04.860Z,20.04
2022-08-05T04:27:56.872Z,20.11
2022-08-05T04:32:00.434Z,19.92
2022-08-05T04:36:10.931Z,19.74
2022-08-05T04:40:26.867Z,19.62
2022-08-05T04:44:30.187Z,19.55
2022-08-05T04:48:33.178Z,19.53
2022-08-05T04:52:37.076Z,19.50
2022-08-05T04:56:40.564Z,19.61
2022-08-05T05:00:52.779Z,19.71
2022-08-05T05:05:02.187Z,19.84
2022-08-05T05:09:08.191Z,19.99
2022-08-05T05:13:15.476Z,20.10
2022-08-05T05:22:23.817Z,20.52
2022-08-05T05:26:32.800Z,20.73
2022-08-05T05:30:35.239Z,20.93
2022-08-05T05:34:37.197Z,21.13
2022-08-05T05:38:39.847Z,21.31
2022-08-05T05:42:47.130Z,21.48
2022-08-05T05:46:49.989Z,21.50
2022-08-05T05:50:53.388Z,21.61
2022-08-05T05:54:55.767Z,21.67
2022-08-05T05:58:58.012Z,21.86
2022-08-05T06:03:40.757Z,22.12
2022-08-05T06:07:41.753Z,22.33
2022-08-05T06:12:01.336Z,22.48
2022-08-05T06:16:28.161Z,22.68
2022-08-05T06:20:28.057Z,22.92
2022-08-05T06:24:31.655Z,23.12
2022-08-05T06:28:33.842Z,23.31
2022-08-05T06:32:36.141Z,23.47
2022-08-05T06:36:57.512Z,23.78
2022-08-05T06:41:00.602Z,23.95
2022-08-05T06:45:05.463Z,24.07
2022-08-05T06:49:10.285Z,24.26
2022-08-05T06:53:22.384Z,24.51
2022-08-05T06:58:02.677Z,24.65
2022-08-05T07:01:52.771Z,24.91
2022-08-05T07:05:56.607Z,25.06
2022-08-05T07:09:59.049Z,25.18
2022-08-05T07:14:29.495Z,25.26
2022-08-05T07:18:34.184Z,25.36
2022-08-05T07:22:37.083Z,25.52
2022-08-05T07:26:40.705Z,25.58
2022-08-05T07:30:50.401Z,25.63
2022-08-05T07:34:57.894Z,25.78
2022-08-05T07:39:03.257Z,26.00
2022-08-05T07:43:14.581Z,26.17
2022-08-05T07:47:25.817Z,26.36
2022-08-05T07:51:36.901Z,26.54
2022-08-05T07:55:44.360Z,26.76
2022-08-05T08:00:05.731Z,26.81
2022-08-05T08:04:16.617Z,26.95
2022-08-05T08:08:26.473Z,27.09
2022-08-05T08:12:48.862Z,27.25
2022-08-05T08:16:53.349Z,27.44
2022-08-05T08:21:02.098Z,27.47
2022-08-05T08:25:16.009Z,27.61
2022-08-05T08:29:29.613Z,27.94
2022-08-05T08:33:41.391Z,28.11
2022-08-05T08:37:44.959Z,28.22
2022-08-05T08:41:59.934Z,28.36
2022-08-05T08:46:05.872Z,28.43
2022-08-05T08:50:31.580Z,28.59
2022-08-05T08:54:36.697Z,28.80
2022-08-05T08:58:44.465Z,28.89
2022-08-05T09:02:51.095Z,29.05
2022-08-05T09:06:54.524Z,29.25
2022-08-05T09:10:57.335Z,29.33
2022-08-05T09:15:06.089Z,29.46
2022-08-05T09:19:09.229Z,29.54
2022-08-05T09:23:21.699Z,29.63
2022-08-05T09:28:04.125Z,29.79
2022-08-05T09:32:41.866Z,29.83
2022-08-05T09:36:55.186Z,30.13
2022-08-05T09:41:07.097Z,30.29
2022-08-05T09:46:04.821Z,30.29
2022-08-05T09:49:40.442Z,30.40
2022-08-05T09:53:59.287Z,30.67
2022-08-05T09:58:15.187Z,30.93
2022-08-05T10:02:38.086Z,30.85
2022-08-05T10:06:55.086Z,31.11
2022-08-05T10:11:05.039Z,31.37
2022-08-05T10:15:25.600Z,31.40
2022-08-05T10:20:02.816Z,31.51
2022-08-05T10:24:00.697Z,31.52
2022-08-05T10:28:13.104Z,31.61
2022-08-05T10:32:53.044Z,31.65
2022-08-05T10:36:49.342Z,31.80
2022-08-05T10:41:05.999Z,31.84
2022-08-05T10:45:23.732Z,32.16
2022-08-05T10:49:48.723Z,32.20
2022-08-05T10:53:51.353Z,32.41
2022-08-05T10:58:35.713Z,32.80
2022-08-05T11:03:00.321Z,32.77
2022-08-05T11:07:33.132Z,33.00
2022-08-05T11:11:54.051Z,33.01
2022-08-05T11:16:23.127Z,33.05
2022-08-05T11:20:51.296Z,33.13
2022-08-05T11:26:04.742Z,33.46
2022-08-05T11:30:15.161Z,33.53
2022-08-05T11:34:36.650Z,33.65
2022-08-05T11:38:45.977Z,33.64
2022-08-05T11:42:57.350Z,33.76
2022-08-05T11:47:11.115Z,34.00
2022-08-05T12:39:37.098Z,35.24
2022-08-05T12:44:48.753Z,35.31
2022-08-05T12:49:13.032Z,35.50
2022-08-05T12:53:17.034Z,35.68
2022-08-05T12:57:23.443Z,35.44
2022-08-05T13:02:00.556Z,35.29
2022-08-05T13:05:50.145Z,35.40
2022-08-05T13:09:58.973Z,35.47
2022-08-05T13:14:04.930Z,35.60
2022-08-05T13:18:09.068Z,35.84
2022-08-05T13:22:13.196Z,36.16
2022-08-05T13:26:15.322Z,36.52
2022-08-05T13:30:34.138Z,36.75
2022-08-05T13:34:38.210Z,36.85
2022-08-05T13:38:43.280Z,36.93
2022-08-05T13:42:45.352Z,36.50
2022-08-05T13:47:08.361Z,36.55
2022-08-05T13:51:13.652Z,36.52
2022-08-05T13:55:41.965Z,36.41
2022-08-05T13:59:57.166Z,36.72
2022-08-05T14:04:20.069Z,36.91
2022-08-05T14:08:27.477Z,37.29
2022-08-05T14:12:32.536Z,37.21
2022-08-05T14:16:35.190Z,36.95
2022-08-05T14:20:37.189Z,37.08
2022-08-05T14:24:40.156Z,37.17
2022-08-05T14:28:51.808Z,37.53
2022-08-05T14:32:54.554Z,37.78
2022-08-05T14:36:58.932Z,38.04
2022-08-05T14:41:06.850Z,37.55
2022-08-05T14:45:10.248Z,37.62
2022-08-05T14:49:12.632Z,37.83
2022-08-05T14:53:14.962Z,38.14
2022-08-05T14:57:17.080Z,38.28
2022-08-05T15:01:22.731Z,38.23
2022-08-05T15:06:07.999Z,38.19
2022-08-05T15:10:09.918Z,37.10
2022-08-05T15:14:12.143Z,37.19
2022-08-05T15:18:35.542Z,37.03
2022-08-05T15:22:40.557Z,37.73
2022-08-05T15:26:46.984Z,38.21
2022-08-05T15:30:53.118Z,38.56
2022-08-05T15:34:57.087Z,37.91
2022-08-05T15:41:00.431Z,37.55
2022-08-05T15:43:21.930Z,38.33
2022-08-05T15:47:24.978Z,40.80
2022-08-05T15:52:10.309Z,41.04
2022-08-05T15:56:02.706Z,42.36
2022-08-05T16:00:08.255Z,41.76
2022-08-05T16:04:10.869Z,41.54
2022-08-05T16:08:16.098Z,41.03
2022-08-05T16:12:19.894Z,41.59
2022-08-05T16:16:25.492Z,42.79
2022-08-05T16:20:27.953Z,41.25
2022-08-05T16:24:40.186Z,41.36
2022-08-05T16:28:44.173Z,39.92
2022-08-05T16:32:46.397Z,38.99
2022-08-05T16:36:49.469Z,38.49
2022-08-05T16:41:00.796Z,38.33
2022-08-05T16:46:02.849Z,38.63
2022-08-05T16:49:26.569Z,38.75
2022-08-05T16:53:31.854Z,37.94
2022-08-05T16:58:01.397Z,37.57
2022-08-05T17:02:05.345Z,36.95
2022-08-05T17:06:08.490Z,36.73
2022-08-05T17:10:13.076Z,36.39
2022-08-05T17:14:22.275Z,35.31
2022-08-05T17:18:36.654Z,35.03
2022-08-05T17:22:41.120Z,34.34
2022-08-05T17:26:43.118Z,33.97
2022-08-05T17:30:52.096Z,33.82
2022-08-05T17:34:54.562Z,34.32
2022-08-05T17:39:00.287Z,34.34
2022-08-05T17:43:07.727Z,34.59
2022-08-05T17:47:14.929Z,34.43
2022-08-05T17:51:21.543Z,33.81
2022-08-05T17:55:34.278Z,33.38
2022-08-05T17:59:40.073Z,33.29
2022-08-05T18:03:59.369Z,33.12
2022-08-05T18:08:04.610Z,32.99
2022-08-05T18:12:06.755Z,32.70
2022-08-05T18:16:15.076Z,32.48
2022-08-05T18:20:29.528Z,32.33
2022-08-05T18:24:33.801Z,31.96
2022-08-05T18:28:38.997Z,31.73
2022-08-05T18:32:41.387Z,31.57
2022-08-05T18:36:55.707Z,31.39
2022-08-05T18:41:54.289Z,31.28
2022-08-05T18:45:19.987Z,31.09
2022-08-05T18:49:44.679Z,30.98
2022-08-05T18:54:00.111Z,30.91
2022-08-05T18:58:03.196Z,30.79
2022-08-05T19:02:27.079Z,30.76
2022-08-05T19:06:37.345Z,30.63
2022-08-05T19:10:47.201Z,30.51
2022-08-05T19:15:00.934Z,30.35
2022-08-05T19:19:04.937Z,30.24
2022-08-05T19:23:07.953Z,30.17
2022-08-05T19:27:11.752Z,30.07
2022-08-05T19:31:17.913Z,29.98
2022-08-05T19:35:24.107Z,29.87
2022-08-05T19:39:28.275Z,29.74
2022-08-05T19:44:04.196Z,29.65
2022-08-05T19:47:55.743Z,29.55
2022-08-05T19:52:19.689Z,29.40
2022-08-05T19:56:32.523Z,29.14
2022-08-05T20:00:36.823Z,29.10
2022-08-05T20:04:43.276Z,28.87
2022-08-05T20:08:48.946Z,28.80
2022-08-05T20:12:51.447Z,28.52
2022-08-05T20:16:53.499Z,28.42
2022-08-05T20:20:57.091Z,28.28
2022-08-05T20:24:59.206Z,28.21
2022-08-05T20:29:01.241Z,28.08
2022-08-05T20:33:03.394Z,27.94
2022-08-05T20:37:05.521Z,27.83
2022-08-05T20:41:24.110Z,27.83
2022-08-05T20:45:56.401Z,27.73
2022-08-05T20:49:52.047Z,27.69
2022-08-05T20:53:56.272Z,27.44
2022-08-05T20:57:59.075Z,27.04
2022-08-05T21:02:01.233Z,26.95
2022-08-05T21:06:03.766Z,26.81
2022-08-05T21:10:09.236Z,26.84
2022-08-05T21:14:15.926Z,26.83
2022-08-05T21:18:20.944Z,26.93
2022-08-05T21:22:25.701Z,26.74
2022-08-05T21:26:29.491Z,26.54
2022-08-05T21:30:31.729Z,26.45
2022-08-05T21:34:35.478Z,26.66
2022-08-05T21:38:40.519Z,26.53
2022-08-05T21:42:44.508Z,26.64
2022-08-05T21:46:47.421Z,26.50
2022-08-05T21:50:54.114Z,26.33
2022-08-05T21:55:06.396Z,26.19
2022-08-05T21:59:24.933Z,26.26
2022-08-05T22:03:48.905Z,26.01
2022-08-05T22:07:58.417Z,26.08
2022-08-05T22:12:02.054Z,26.09
2022-08-05T22:16:41.032Z,26.00
2022-08-05T22:20:34.848Z,25.92
2022-08-05T22:24:59.448Z,25.82
2022-08-05T22:29:01.787Z,25.55
2022-08-05T22:33:15.643Z,25.66
2022-08-05T22:37:18.108Z,25.70
2022-08-05T22:42:04.551Z,25.31
2022-08-05T22:45:43.417Z,25.07
2022-08-05T22:50:20.707Z,24.94
2022-08-05T22:54:10.323Z,24.82
2022-08-05T22:58:14.650Z,24.86
2022-08-05T23:02:29.374Z,24.95
2022-08-05T23:06:33.998Z,24.77
2022-08-05T23:10:37.296Z,24.91
2022-08-05T23:14:43.769Z,24.68
2022-08-05T23:18:45.874Z,24.46
2022-08-05T23:22:55.590Z,24.63
2022-08-05T23:26:58.214Z,24.76
2022-08-05T23:31:16.355Z,24.80
2022-08-05T23:35:20.199Z,24.76
2022-08-05T23:39:44.642Z,24.73
2022-08-05T23:44:05.623Z,24.67
2022-08-05T23:48:07.614Z,24.53
2022-08-05T23:52:26.655Z,24.43
2022-08-05T23:56:29.910Z,24.20
